sensor_id;sensor_type;location;lat;lon;timestamp;temperature;humidity
7014;DHT22;3547;50.774;12.918;2023-06-04T00:01:22;7.40;1.00
7014;DHT22;3547;50.774;12.918;2023-06-04T00:03:48;7.30;1.00
7014;DHT22;3547;50.774;12.918;2023-06-04T00:06:19;7.20;1.00
7014;DHT22;3547;50.774;12.918;2023-06-04T00:08:50;7.20;1.00
7014;DHT22;3547;50.774;12.918;2023-06-04T00:11:23;7.10;1.00
7014;DHT22;3547;50.774;12.918;2023-06-04T00:13:49;7.10;1.00
7014;DHT22;3547;50.774;12.918;2023-06-04T00:16:15;7.00;1.00
7014;DHT22;3547;50.774;12.918;2023-06-04T00:18:41;7.10;1.00
7014;DHT22;3547;50.774;12.918;2023-06-04T00:21:07;7.00;1.00
7014;DHT22;3547;50.774;12.918;2023-06-04T00:23:34;7.00;1.00
7014;DHT22;3547;50.774;12.918;2023-06-04T00:26:00;6.90;1.00
7014;DHT22;3547;50.774;12.918;2023-06-04T00:28:26;6.90;1.00
7014;DHT22;3547;50.774;12.918;2023-06-04T00:30:52;6.80;1.00
7014;DHT22;3547;50.774;12.918;2023-06-04T00:33:18;6.80;1.00
7014;DHT22;3547;50.774;12.918;2023-06-04T00:35:44;6.80;1.00
7014;DHT22;3547;50.774;12.918;2023-06-04T00:38:11;6.70;1.00
7014;DHT22;3547;50.774;12.918;2023-06-04T00:40:37;6.80;1.00
7014;DHT22;3547;50.774;12.918;2023-06-04T00:43:03;6.90;1.00
7014;DHT22;3547;50.774;12.918;2023-06-04T00:45:29;6.80;1.00
7014;DHT22;3547;50.774;12.918;2023-06-04T00:47:57;6.70;1.00
7014;DHT22;3547;50.774;12.918;2023-06-04T00:50:24;6.60;1.00
7014;DHT22;3547;50.774;12.918;2023-06-04T00:52:50;6.50;1.00
7014;DHT22;3547;50.774;12.918;2023-06-04T00:55:17;6.40;1.00
7014;DHT22;3547;50.774;12.918;2023-06-04T00:57:46;6.50;1.00
7014;DHT22;3547;50.774;12.918;2023-06-04T01:00:13;6.40;1.00
7014;DHT22;3547;50.774;12.918;2023-06-04T01:02:41;6.40;1.00
7014;DHT22;3547;50.774;12.918;2023-06-04T01:05:36;6.40;1.00
7014;DHT22;3547;50.774;12.918;2023-06-04T01:08:04;6.30;1.00
7014;DHT22;3547;50.774;12.918;2023-06-04T01:10:35;6.30;1.00
7014;DHT22;3547;50.774;12.918;2023-06-04T01:13:01;6.20;1.00
7014;DHT22;3547;50.774;12.918;2023-06-04T01:15:27;6.20;1.00
7014;DHT22;3547;50.774;12.918;2023-06-04T01:17:58;6.10;1.00
7014;DHT22;3547;50.774;12.918;2023-06-04T01:30:52;6.00;1.00
7014;DHT22;3547;50.774;12.918;2023-06-04T01:33:19;6.00;1.00
7014;DHT22;3547;50.774;12.918;2023-06-04T01:35:46;6.00;1.00
7014;DHT22;3547;50.774;12.918;2023-06-04T01:38:13;6.10;1.00
7014;DHT22;3547;50.774;12.918;2023-06-04T01:40:39;6.00;1.00
7014;DHT22;3547;50.774;12.918;2023-06-04T01:43:07;5.90;1.00
7014;DHT22;3547;50.774;12.918;2023-06-04T01:45:33;5.90;1.00
7014;DHT22;3547;50.774;12.918;2023-06-04T01:48:02;5.80;1.00
7014;DHT22;3547;50.774;12.918;2023-06-04T01:53:28;5.80;1.00
7014;DHT22;3547;50.774;12.918;2023-06-04T01:55:54;5.70;1.00
7014;DHT22;3547;50.774;12.918;2023-06-04T01:58:29;5.70;1.00
7014;DHT22;3547;50.774;12.918;2023-06-04T02:00:57;5.70;1.00
7014;DHT22;3547;50.774;12.918;2023-06-04T02:03:26;5.60;1.00
7014;DHT22;3547;50.774;12.918;2023-06-04T02:05:53;5.60;1.00
7014;DHT22;3547;50.774;12.918;2023-06-04T02:08:19;5.50;1.00
7014;DHT22;3547;50.774;12.918;2023-06-04T02:14:10;5.40;1.00
7014;DHT22;3547;50.774;12.918;2023-06-04T02:16:36;5.50;1.00
7014;DHT22;3547;50.774;12.918;2023-06-04T02:19:06;5.50;1.00
7014;DHT22;3547;50.774;12.918;2023-06-04T02:22:11;5.50;1.00
7014;DHT22;3547;50.774;12.918;2023-06-04T02:24:38;5.50;1.00
7014;DHT22;3547;50.774;12.918;2023-06-04T02:27:05;5.50;1.00
7014;DHT22;3547;50.774;12.918;2023-06-04T02:29:32;5.40;1.00
7014;DHT22;3547;50.774;12.918;2023-06-04T02:31:58;5.30;1.00
7014;DHT22;3547;50.774;12.918;2023-06-04T02:34:24;5.30;1.00
7014;DHT22;3547;50.774;12.918;2023-06-04T02:36:50;5.30;1.00
7014;DHT22;3547;50.774;12.918;2023-06-04T02:39:26;5.30;1.00
7014;DHT22;3547;50.774;12.918;2023-06-04T02:41:52;5.30;1.00
7014;DHT22;3547;50.774;12.918;2023-06-04T02:44:18;5.20;1.00
7014;DHT22;3547;50.774;12.918;2023-06-04T02:46:44;5.20;1.00
7014;DHT22;3547;50.774;12.918;2023-06-04T02:52:32;5.10;1.00
7014;DHT22;3547;50.774;12.918;2023-06-04T02:54:58;5.00;1.00
7014;DHT22;3547;50.774;12.918;2023-06-04T02:57:25;5.00;1.00
7014;DHT22;3547;50.774;12.918;2023-06-04T02:59:51;5.00;1.00
7014;DHT22;3547;50.774;12.918;2023-06-04T03:02:18;5.00;1.00
7014;DHT22;3547;50.774;12.918;2023-06-04T03:04:44;5.10;1.00
7014;DHT22;3547;50.774;12.918;2023-06-04T03:07:24;5.00;1.00
7014;DHT22;3547;50.774;12.918;2023-06-04T03:09:50;4.90;1.00
7014;DHT22;3547;50.774;12.918;2023-06-04T03:12:16;4.90;1.00
7014;DHT22;3547;50.774;12.918;2023-06-04T03:14:42;4.80;1.00
7014;DHT22;3547;50.774;12.918;2023-06-04T03:17:09;4.80;1.00
7014;DHT22;3547;50.774;12.918;2023-06-04T03:19:40;4.80;1.00
7014;DHT22;3547;50.774;12.918;2023-06-04T03:22:07;4.80;1.00
7014;DHT22;3547;50.774;12.918;2023-06-04T03:24:43;4.70;1.00
7014;DHT22;3547;50.774;12.918;2023-06-04T03:27:09;4.80;1.00
7014;DHT22;3547;50.774;12.918;2023-06-04T03:29:36;4.80;1.00
7014;DHT22;3547;50.774;12.918;2023-06-04T03:32:03;4.80;1.00
7014;DHT22;3547;50.774;12.918;2023-06-04T03:34:30;4.80;1.00
7014;DHT22;3547;50.774;12.918;2023-06-04T03:36:59;4.90;1.00
7014;DHT22;3547;50.774;12.918;2023-06-04T03:39:26;4.90;1.00
7014;DHT22;3547;50.774;12.918;2023-06-04T03:41:52;4.90;1.00
7014;DHT22;3547;50.774;12.918;2023-06-04T03:44:19;4.80;1.00
7014;DHT22;3547;50.774;12.918;2023-06-04T03:46:58;4.80;1.00
7014;DHT22;3547;50.774;12.918;2023-06-04T03:49:24;4.70;1.00
7014;DHT22;3547;50.774;12.918;2023-06-04T03:51:51;4.70;1.00
7014;DHT22;3547;50.774;12.918;2023-06-04T03:54:23;4.80;1.00
7014;DHT22;3547;50.774;12.918;2023-06-04T03:56:52;4.80;1.00
7014;DHT22;3547;50.774;12.918;2023-06-04T03:59:25;5.00;1.00
7014;DHT22;3547;50.774;12.918;2023-06-04T04:01:51;5.00;1.00
7014;DHT22;3547;50.774;12.918;2023-06-04T04:07:40;5.00;1.00
7014;DHT22;3547;50.774;12.918;2023-06-04T04:10:06;4.90;1.00
7014;DHT22;3547;50.774;12.918;2023-06-04T04:12:33;5.00;1.00
7014;DHT22;3547;50.774;12.918;2023-06-04T04:15:05;5.00;1.00
7014;DHT22;3547;50.774;12.918;2023-06-04T04:17:32;5.10;1.00
7014;DHT22;3547;50.774;12.918;2023-06-04T04:19:58;5.30;1.00
7014;DHT22;3547;50.774;12.918;2023-06-04T04:22:27;5.30;1.00
7014;DHT22;3547;50.774;12.918;2023-06-04T04:24:53;5.40;1.00
7014;DHT22;3547;50.774;12.918;2023-06-04T04:27:20;5.40;1.00
7014;DHT22;3547;50.774;12.918;2023-06-04T04:29:46;5.50;1.00
7014;DHT22;3547;50.774;12.918;2023-06-04T04:32:13;5.60;1.00
7014;DHT22;3547;50.774;12.918;2023-06-04T04:34:53;5.60;1.00
7014;DHT22;3547;50.774;12.918;2023-06-04T04:37:23;5.60;1.00
7014;DHT22;3547;50.774;12.918;2023-06-04T04:39:52;5.70;1.00
7014;DHT22;3547;50.774;12.918;2023-06-04T04:42:19;5.70;1.00
7014;DHT22;3547;50.774;12.918;2023-06-04T04:44:45;5.80;1.00
7014;DHT22;3547;50.774;12.918;2023-06-04T04:47:16;5.90;1.00
7014;DHT22;3547;50.774;12.918;2023-06-04T04:49:42;6.00;1.00
7014;DHT22;3547;50.774;12.918;2023-06-04T04:52:08;6.10;1.00
7014;DHT22;3547;50.774;12.918;2023-06-04T04:54:38;6.20;1.00
7014;DHT22;3547;50.774;12.918;2023-06-04T04:57:13;6.20;1.00
7014;DHT22;3547;50.774;12.918;2023-06-04T04:59:42;6.30;1.00
7014;DHT22;3547;50.774;12.918;2023-06-04T05:02:08;6.40;1.00
7014;DHT22;3547;50.774;12.918;2023-06-04T05:04:37;6.50;1.00
7014;DHT22;3547;50.774;12.918;2023-06-04T05:07:07;6.60;1.00
7014;DHT22;3547;50.774;12.918;2023-06-04T05:09:36;6.70;1.00
7014;DHT22;3547;50.774;12.918;2023-06-04T05:12:02;6.80;1.00
7014;DHT22;3547;50.774;12.918;2023-06-04T05:14:29;6.90;1.00
7014;DHT22;3547;50.774;12.918;2023-06-04T05:16:58;7.00;1.00
7014;DHT22;3547;50.774;12.918;2023-06-04T05:19:24;7.10;1.00
7014;DHT22;3547;50.774;12.918;2023-06-04T05:21:54;7.30;1.00
7014;DHT22;3547;50.774;12.918;2023-06-04T05:24:20;7.40;1.00
7014;DHT22;3547;50.774;12.918;2023-06-04T05:26:46;7.50;1.00
7014;DHT22;3547;50.774;12.918;2023-06-04T05:29:14;7.70;1.00
7014;DHT22;3547;50.774;12.918;2023-06-04T05:31:40;7.80;1.00
7014;DHT22;3547;50.774;12.918;2023-06-04T05:34:06;7.90;1.00
7014;DHT22;3547;50.774;12.918;2023-06-04T05:36:32;8.10;1.00
7014;DHT22;3547;50.774;12.918;2023-06-04T05:38:58;8.20;1.00
7014;DHT22;3547;50.774;12.918;2023-06-04T05:41:27;8.30;1.00
7014;DHT22;3547;50.774;12.918;2023-06-04T05:43:56;8.40;1.00
7014;DHT22;3547;50.774;12.918;2023-06-04T05:46:25;8.60;1.00
7014;DHT22;3547;50.774;12.918;2023-06-04T05:48:51;8.70;1.00
7014;DHT22;3547;50.774;12.918;2023-06-04T05:51:18;8.80;1.00
7014;DHT22;3547;50.774;12.918;2023-06-04T05:53:44;9.00;1.00
7014;DHT22;3547;50.774;12.918;2023-06-04T05:56:30;9.10;1.00
7014;DHT22;3547;50.774;12.918;2023-06-04T05:58:57;9.20;1.00
7014;DHT22;3547;50.774;12.918;2023-06-04T06:01:26;9.40;1.00
7014;DHT22;3547;50.774;12.918;2023-06-04T06:03:52;9.50;1.00
7014;DHT22;3547;50.774;12.918;2023-06-04T06:06:21;9.70;1.00
7014;DHT22;3547;50.774;12.918;2023-06-04T06:08:47;9.80;1.00
7014;DHT22;3547;50.774;12.918;2023-06-04T06:11:15;9.90;1.00
7014;DHT22;3547;50.774;12.918;2023-06-04T06:13:42;10.00;1.00
7014;DHT22;3547;50.774;12.918;2023-06-04T06:16:13;10.20;1.00
7014;DHT22;3547;50.774;12.918;2023-06-04T06:18:39;10.30;1.00
7014;DHT22;3547;50.774;12.918;2023-06-04T06:21:05;10.50;1.00
7014;DHT22;3547;50.774;12.918;2023-06-04T06:23:32;10.60;1.00
7014;DHT22;3547;50.774;12.918;2023-06-04T06:25:58;10.70;1.00
7014;DHT22;3547;50.774;12.918;2023-06-04T06:28:27;10.90;1.00
7014;DHT22;3547;50.774;12.918;2023-06-04T06:30:53;11.00;1.00
7014;DHT22;3547;50.774;12.918;2023-06-04T06:33:20;11.10;1.00
7014;DHT22;3547;50.774;12.918;2023-06-04T06:35:54;11.30;1.00
7014;DHT22;3547;50.774;12.918;2023-06-04T06:38:20;11.40;1.00
7014;DHT22;3547;50.774;12.918;2023-06-04T06:40:54;11.60;1.00
7014;DHT22;3547;50.774;12.918;2023-06-04T06:43:21;11.70;1.00
7014;DHT22;3547;50.774;12.918;2023-06-04T06:45:57;11.80;1.00
7014;DHT22;3547;50.774;12.918;2023-06-04T06:48:24;11.90;1.00
7014;DHT22;3547;50.774;12.918;2023-06-04T06:50:54;12.10;1.00
7014;DHT22;3547;50.774;12.918;2023-06-04T06:53:21;12.20;1.00
7014;DHT22;3547;50.774;12.918;2023-06-04T07:01:41;12.70;1.00
7014;DHT22;3547;50.774;12.918;2023-06-04T07:04:08;12.80;1.00
7014;DHT22;3547;50.774;12.918;2023-06-04T07:06:34;12.90;1.00
7014;DHT22;3547;50.774;12.918;2023-06-04T07:09:03;13.00;1.00
7014;DHT22;3547;50.774;12.918;2023-06-04T07:11:31;13.10;1.00
7014;DHT22;3547;50.774;12.918;2023-06-04T07:14:01;13.20;1.00
7014;DHT22;3547;50.774;12.918;2023-06-04T07:19:55;13.40;1.00
7014;DHT22;3547;50.774;12.918;2023-06-04T07:22:22;13.60;1.00
7014;DHT22;3547;50.774;12.918;2023-06-04T07:24:48;13.70;1.00
7014;DHT22;3547;50.774;12.918;2023-06-04T07:27:40;13.70;1.00
7014;DHT22;3547;50.774;12.918;2023-06-04T07:30:10;13.90;1.00
7014;DHT22;3547;50.774;12.918;2023-06-04T07:32:51;13.90;1.00
7014;DHT22;3547;50.774;12.918;2023-06-04T07:35:21;14.00;1.00
7014;DHT22;3547;50.774;12.918;2023-06-04T07:41:10;14.20;1.00
7014;DHT22;3547;50.774;12.918;2023-06-04T07:43:36;14.40;1.00
7014;DHT22;3547;50.774;12.918;2023-06-04T07:46:04;14.40;1.00
7014;DHT22;3547;50.774;12.918;2023-06-04T07:48:34;14.70;1.00
7014;DHT22;3547;50.774;12.918;2023-06-04T07:51:03;14.70;1.00
7014;DHT22;3547;50.774;12.918;2023-06-04T07:53:32;14.80;1.00
7014;DHT22;3547;50.774;12.918;2023-06-04T07:56:01;14.80;1.00
7014;DHT22;3547;50.774;12.918;2023-06-04T07:58:28;15.00;1.00
7014;DHT22;3547;50.774;12.918;2023-06-04T08:00:55;15.00;1.00
7014;DHT22;3547;50.774;12.918;2023-06-04T08:03:22;15.10;1.00
7014;DHT22;3547;50.774;12.918;2023-06-04T08:05:49;15.20;1.00
7014;DHT22;3547;50.774;12.918;2023-06-04T08:08:15;15.30;1.00
7014;DHT22;3547;50.774;12.918;2023-06-04T08:10:41;15.30;1.00
7014;DHT22;3547;50.774;12.918;2023-06-04T08:13:11;15.40;1.00
7014;DHT22;3547;50.774;12.918;2023-06-04T08:15:47;15.50;1.00
7014;DHT22;3547;50.774;12.918;2023-06-04T08:18:13;15.50;1.00
7014;DHT22;3547;50.774;12.918;2023-06-04T08:20:40;15.70;1.00
7014;DHT22;3547;50.774;12.918;2023-06-04T08:23:06;15.80;1.00
7014;DHT22;3547;50.774;12.918;2023-06-04T08:25:32;15.90;1.00
7014;DHT22;3547;50.774;12.918;2023-06-04T08:27:59;16.00;1.00
7014;DHT22;3547;50.774;12.918;2023-06-04T08:30:25;16.10;1.00
7014;DHT22;3547;50.774;12.918;2023-06-04T08:32:53;16.10;1.00
7014;DHT22;3547;50.774;12.918;2023-06-04T08:35:19;16.10;1.00
7014;DHT22;3547;50.774;12.918;2023-06-04T08:37:45;16.30;1.00
7014;DHT22;3547;50.774;12.918;2023-06-04T08:40:12;16.30;1.00
7014;DHT22;3547;50.774;12.918;2023-06-04T08:42:42;16.40;1.00
7014;DHT22;3547;50.774;12.918;2023-06-04T08:45:12;16.50;1.00
7014;DHT22;3547;50.774;12.918;2023-06-04T08:47:49;16.60;1.00
7014;DHT22;3547;50.774;12.918;2023-06-04T08:50:18;16.60;1.00
7014;DHT22;3547;50.774;12.918;2023-06-04T08:52:45;16.60;1.00
7014;DHT22;3547;50.774;12.918;2023-06-04T08:55:12;16.70;1.00
7014;DHT22;3547;50.774;12.918;2023-06-04T08:57:40;16.80;1.00
7014;DHT22;3547;50.774;12.918;2023-06-04T09:00:07;16.80;1.00
7014;DHT22;3547;50.774;12.918;2023-06-04T09:02:37;16.90;1.00
7014;DHT22;3547;50.774;12.918;2023-06-04T09:05:04;16.90;1.00
7014;DHT22;3547;50.774;12.918;2023-06-04T09:07:36;17.10;1.00
7014;DHT22;3547;50.774;12.918;2023-06-04T09:10:04;17.20;1.00
7014;DHT22;3547;50.774;12.918;2023-06-04T09:12:32;17.20;1.00
7014;DHT22;3547;50.774;12.918;2023-06-04T09:14:59;17.20;1.00
7014;DHT22;3547;50.774;12.918;2023-06-04T09:17:27;17.30;1.00
7014;DHT22;3547;50.774;12.918;2023-06-04T09:19:54;17.40;1.00
7014;DHT22;3547;50.774;12.918;2023-06-04T09:22:31;17.40;1.00
7014;DHT22;3547;50.774;12.918;2023-06-04T09:25:07;17.50;1.00
7014;DHT22;3547;50.774;12.918;2023-06-04T09:27:50;17.70;1.00
7014;DHT22;3547;50.774;12.918;2023-06-04T09:30:16;17.70;1.00
7014;DHT22;3547;50.774;12.918;2023-06-04T09:32:42;17.80;1.00
7014;DHT22;3547;50.774;12.918;2023-06-04T09:35:17;17.80;1.00
7014;DHT22;3547;50.774;12.918;2023-06-04T09:37:56;18.00;1.00
7014;DHT22;3547;50.774;12.918;2023-06-04T09:48:19;18.00;1.00
7014;DHT22;3547;50.774;12.918;2023-06-04T09:50:47;18.20;1.00
7014;DHT22;3547;50.774;12.918;2023-06-04T09:53:18;18.30;1.00
7014;DHT22;3547;50.774;12.918;2023-06-04T09:55:57;18.40;1.00
7014;DHT22;3547;50.774;12.918;2023-06-04T09:58:28;18.40;1.00
7014;DHT22;3547;50.774;12.918;2023-06-04T10:00:56;18.40;1.00
7014;DHT22;3547;50.774;12.918;2023-06-04T10:03:33;18.50;1.00
7014;DHT22;3547;50.774;12.918;2023-06-04T10:06:01;18.60;1.00
7014;DHT22;3547;50.774;12.918;2023-06-04T10:08:30;18.70;1.00
7014;DHT22;3547;50.774;12.918;2023-06-04T10:10:58;18.60;1.00
7014;DHT22;3547;50.774;12.918;2023-06-04T10:13:38;18.60;1.00
7014;DHT22;3547;50.774;12.918;2023-06-04T10:16:07;18.80;1.00
7014;DHT22;3547;50.774;12.918;2023-06-04T10:18:34;18.80;1.00
7014;DHT22;3547;50.774;12.918;2023-06-04T10:21:01;19.00;1.00
7014;DHT22;3547;50.774;12.918;2023-06-04T10:23:28;19.10;1.00
7014;DHT22;3547;50.774;12.918;2023-06-04T10:25:55;19.10;1.00
7014;DHT22;3547;50.774;12.918;2023-06-04T10:28:23;19.30;1.00
7014;DHT22;3547;50.774;12.918;2023-06-04T10:30:50;19.40;1.00
7014;DHT22;3547;50.774;12.918;2023-06-04T10:33:20;19.50;1.00
7014;DHT22;3547;50.774;12.918;2023-06-04T10:35:52;19.60;1.00
7014;DHT22;3547;50.774;12.918;2023-06-04T10:38:19;19.70;1.00
7014;DHT22;3547;50.774;12.918;2023-06-04T10:40:47;19.80;1.00
7014;DHT22;3547;50.774;12.918;2023-06-04T10:43:14;19.80;1.00
7014;DHT22;3547;50.774;12.918;2023-06-04T10:45:44;20.00;1.00
7014;DHT22;3547;50.774;12.918;2023-06-04T10:48:12;20.10;1.00
7014;DHT22;3547;50.774;12.918;2023-06-04T10:50:51;20.30;1.00
7014;DHT22;3547;50.774;12.918;2023-06-04T10:53:18;20.30;1.00
7014;DHT22;3547;50.774;12.918;2023-06-04T10:55:49;20.50;1.00
7014;DHT22;3547;50.774;12.918;2023-06-04T10:58:16;20.70;1.00
7014;DHT22;3547;50.774;12.918;2023-06-04T11:00:45;20.90;1.00
7014;DHT22;3547;50.774;12.918;2023-06-04T11:03:15;20.90;1.00
7014;DHT22;3547;50.774;12.918;2023-06-04T11:05:46;20.80;99.90
7014;DHT22;3547;50.774;12.918;2023-06-04T11:08:14;20.80;99.90
7014;DHT22;3547;50.774;12.918;2023-06-04T11:10:42;21.10;1.00
7014;DHT22;3547;50.774;12.918;2023-06-04T11:13:08;21.50;1.00
7014;DHT22;3547;50.774;12.918;2023-06-04T11:15:39;21.80;1.00
7014;DHT22;3547;50.774;12.918;2023-06-04T11:18:05;22.00;1.00
7014;DHT22;3547;50.774;12.918;2023-06-04T11:20:32;22.30;1.00
7014;DHT22;3547;50.774;12.918;2023-06-04T11:22:59;22.40;1.00
7014;DHT22;3547;50.774;12.918;2023-06-04T11:25:30;22.60;1.00
7014;DHT22;3547;50.774;12.918;2023-06-04T11:27:59;22.70;99.90
7014;DHT22;3547;50.774;12.918;2023-06-04T11:30:27;22.80;99.90
7014;DHT22;3547;50.774;12.918;2023-06-04T11:33:04;22.60;99.90
7014;DHT22;3547;50.774;12.918;2023-06-04T11:35:49;22.60;99.90
7014;DHT22;3547;50.774;12.918;2023-06-04T11:38:16;22.30;99.90
7014;DHT22;3547;50.774;12.918;2023-06-04T11:40:42;22.90;1.00
7014;DHT22;3547;50.774;12.918;2023-06-04T11:43:10;23.40;99.90
7014;DHT22;3547;50.774;12.918;2023-06-04T11:45:37;23.40;99.90
7014;DHT22;3547;50.774;12.918;2023-06-04T11:48:06;23.90;99.90
7014;DHT22;3547;50.774;12.918;2023-06-04T11:50:36;24.30;1.00
7014;DHT22;3547;50.774;12.918;2023-06-04T11:53:03;24.60;99.90
7014;DHT22;3547;50.774;12.918;2023-06-04T11:55:29;23.80;99.90
7014;DHT22;3547;50.774;12.918;2023-06-04T11:57:56;23.80;99.90
7014;DHT22;3547;50.774;12.918;2023-06-04T12:00:23;24.00;99.90
7014;DHT22;3547;50.774;12.918;2023-06-04T12:02:54;24.40;99.90
7014;DHT22;3547;50.774;12.918;2023-06-04T12:05:22;24.80;99.90
7014;DHT22;3547;50.774;12.918;2023-06-04T12:07:51;25.20;99.90
7014;DHT22;3547;50.774;12.918;2023-06-04T12:10:21;25.60;99.90
7014;DHT22;3547;50.774;12.918;2023-06-04T12:12:55;26.00;99.90
7014;DHT22;3547;50.774;12.918;2023-06-04T12:15:22;26.20;99.90
7014;DHT22;3547;50.774;12.918;2023-06-04T12:17:52;26.40;99.90
7014;DHT22;3547;50.774;12.918;2023-06-04T12:20:34;26.70;99.90
7014;DHT22;3547;50.774;12.918;2023-06-04T12:23:01;26.80;99.90
7014;DHT22;3547;50.774;12.918;2023-06-04T12:25:28;26.70;99.90
7014;DHT22;3547;50.774;12.918;2023-06-04T12:31:17;27.00;99.90
7014;DHT22;3547;50.774;12.918;2023-06-04T12:33:44;27.00;99.90
7014;DHT22;3547;50.774;12.918;2023-06-04T12:36:11;26.60;99.90
7014;DHT22;3547;50.774;12.918;2023-06-04T12:38:37;26.10;99.90
7014;DHT22;3547;50.774;12.918;2023-06-04T12:41:21;26.40;99.90
7014;DHT22;3547;50.774;12.918;2023-06-04T12:43:47;26.90;99.90
7014;DHT22;3547;50.774;12.918;2023-06-04T12:46:13;27.30;99.90
7014;DHT22;3547;50.774;12.918;2023-06-04T12:48:44;27.50;99.90
7014;DHT22;3547;50.774;12.918;2023-06-04T12:51:10;26.20;99.90
7014;DHT22;3547;50.774;12.918;2023-06-04T12:53:41;26.80;99.90
7014;DHT22;3547;50.774;12.918;2023-06-04T12:58:43;27.60;99.90
7014;DHT22;3547;50.774;12.918;2023-06-04T13:01:09;27.90;99.90
7014;DHT22;3547;50.774;12.918;2023-06-04T13:03:40;28.20;99.90
7014;DHT22;3547;50.774;12.918;2023-06-04T13:06:06;28.20;99.90
7014;DHT22;3547;50.774;12.918;2023-06-04T13:08:33;28.50;99.90
7014;DHT22;3547;50.774;12.918;2023-06-04T13:11:00;28.70;99.90
7014;DHT22;3547;50.774;12.918;2023-06-04T13:13:27;27.70;99.90
7014;DHT22;3547;50.774;12.918;2023-06-04T13:15:53;27.40;99.90
7014;DHT22;3547;50.774;12.918;2023-06-04T13:18:20;26.90;99.90
7014;DHT22;3547;50.774;12.918;2023-06-04T13:20:46;27.30;99.90
7014;DHT22;3547;50.774;12.918;2023-06-04T13:23:12;28.10;99.90
7014;DHT22;3547;50.774;12.918;2023-06-04T13:25:40;28.20;99.90
7014;DHT22;3547;50.774;12.918;2023-06-04T13:28:06;28.20;99.90
7014;DHT22;3547;50.774;12.918;2023-06-04T13:30:37;28.60;99.90
7014;DHT22;3547;50.774;12.918;2023-06-04T13:33:04;28.20;99.90
7014;DHT22;3547;50.774;12.918;2023-06-04T13:35:31;28.90;99.90
7014;DHT22;3547;50.774;12.918;2023-06-04T13:37:57;29.00;99.90
7014;DHT22;3547;50.774;12.918;2023-06-04T13:40:23;27.50;99.90
7014;DHT22;3547;50.774;12.918;2023-06-04T13:42:50;26.70;99.90
7014;DHT22;3547;50.774;12.918;2023-06-04T13:45:16;27.90;99.90
7014;DHT22;3547;50.774;12.918;2023-06-04T13:47:43;27.70;99.90
7014;DHT22;3547;50.774;12.918;2023-06-04T13:50:09;28.30;99.90
7014;DHT22;3547;50.774;12.918;2023-06-04T13:52:36;27.50;99.90
7014;DHT22;3547;50.774;12.918;2023-06-04T13:55:02;27.80;99.90
7014;DHT22;3547;50.774;12.918;2023-06-04T13:57:28;28.90;99.90
7014;DHT22;3547;50.774;12.918;2023-06-04T13:59:54;29.50;99.90
7014;DHT22;3547;50.774;12.918;2023-06-04T14:07:33;28.80;99.90
7014;DHT22;3547;50.774;12.918;2023-06-04T14:10:00;29.60;99.90
7014;DHT22;3547;50.774;12.918;2023-06-04T14:12:26;29.50;99.90
7014;DHT22;3547;50.774;12.918;2023-06-04T14:14:52;30.40;99.90
7014;DHT22;3547;50.774;12.918;2023-06-04T14:17:26;30.10;99.90
7014;DHT22;3547;50.774;12.918;2023-06-04T14:19:52;30.90;99.90
7014;DHT22;3547;50.774;12.918;2023-06-04T14:22:19;31.40;99.90
7014;DHT22;3547;50.774;12.918;2023-06-04T14:24:45;31.90;99.90
7014;DHT22;3547;50.774;12.918;2023-06-04T14:27:11;32.20;99.90
7014;DHT22;3547;50.774;12.918;2023-06-04T14:29:37;32.40;99.90
7014;DHT22;3547;50.774;12.918;2023-06-04T14:32:04;31.20;99.90
7014;DHT22;3547;50.774;12.918;2023-06-04T14:34:31;31.00;99.90
7014;DHT22;3547;50.774;12.918;2023-06-04T14:37:00;31.90;99.90
7014;DHT22;3547;50.774;12.918;2023-06-04T14:39:27;32.10;99.90
7014;DHT22;3547;50.774;12.918;2023-06-04T14:41:53;32.10;99.90
7014;DHT22;3547;50.774;12.918;2023-06-04T14:44:20;32.70;99.90
7014;DHT22;3547;50.774;12.918;2023-06-04T14:46:48;32.60;99.90
7014;DHT22;3547;50.774;12.918;2023-06-04T14:49:14;33.00;99.90
7014;DHT22;3547;50.774;12.918;2023-06-04T14:51:40;32.30;99.90
7014;DHT22;3547;50.774;12.918;2023-06-04T14:54:06;32.70;99.90
7014;DHT22;3547;50.774;12.918;2023-06-04T14:56:33;31.90;99.90
7014;DHT22;3547;50.774;12.918;2023-06-04T14:58:59;32.70;99.90
7014;DHT22;3547;50.774;12.918;2023-06-04T15:01:26;33.40;99.90
7014;DHT22;3547;50.774;12.918;2023-06-04T15:03:52;33.70;99.90
7014;DHT22;3547;50.774;12.918;2023-06-04T15:06:19;34.10;99.90
7014;DHT22;3547;50.774;12.918;2023-06-04T15:08:45;34.40;99.90
7014;DHT22;3547;50.774;12.918;2023-06-04T15:11:11;34.60;99.90
7014;DHT22;3547;50.774;12.918;2023-06-04T15:13:37;33.60;99.90
7014;DHT22;3547;50.774;12.918;2023-06-04T15:16:03;32.10;99.90
7014;DHT22;3547;50.774;12.918;2023-06-04T15:18:30;32.70;99.90
7014;DHT22;3547;50.774;12.918;2023-06-04T15:20:58;32.40;99.90
7014;DHT22;3547;50.774;12.918;2023-06-04T15:23:28;32.80;99.90
7014;DHT22;3547;50.774;12.918;2023-06-04T15:29:19;31.90;99.90
7014;DHT22;3547;50.774;12.918;2023-06-04T15:31:46;33.30;99.90
7014;DHT22;3547;50.774;12.918;2023-06-04T15:34:12;33.00;99.90
7014;DHT22;3547;50.774;12.918;2023-06-04T15:36:38;32.50;99.90
7014;DHT22;3547;50.774;12.918;2023-06-04T15:39:05;31.80;99.90
7014;DHT22;3547;50.774;12.918;2023-06-04T15:41:31;32.70;99.90
7014;DHT22;3547;50.774;12.918;2023-06-04T15:43:57;34.00;99.90
7014;DHT22;3547;50.774;12.918;2023-06-04T15:46:24;33.80;99.90
7014;DHT22;3547;50.774;12.918;2023-06-04T15:48:51;34.40;99.90
7014;DHT22;3547;50.774;12.918;2023-06-04T15:51:17;33.00;99.90
7014;DHT22;3547;50.774;12.918;2023-06-04T15:53:44;33.00;99.90
7014;DHT22;3547;50.774;12.918;2023-06-04T15:56:10;32.30;99.90
7014;DHT22;3547;50.774;12.918;2023-06-04T15:58:39;33.10;99.90
7014;DHT22;3547;50.774;12.918;2023-06-04T16:01:05;33.70;99.90
7014;DHT22;3547;50.774;12.918;2023-06-04T16:03:31;35.00;99.90
7014;DHT22;3547;50.774;12.918;2023-06-04T16:05:58;35.90;99.90
7014;DHT22;3547;50.774;12.918;2023-06-04T16:08:24;35.60;99.90
7014;DHT22;3547;50.774;12.918;2023-06-04T16:10:51;33.90;99.90
7014;DHT22;3547;50.774;12.918;2023-06-04T16:13:20;34.80;99.90
7014;DHT22;3547;50.774;12.918;2023-06-04T16:15:46;35.90;99.90
7014;DHT22;3547;50.774;12.918;2023-06-04T16:18:12;36.30;99.90
7014;DHT22;3547;50.774;12.918;2023-06-04T16:20:38;36.80;99.90
7014;DHT22;3547;50.774;12.918;2023-06-04T16:23:05;36.70;99.90
7014;DHT22;3547;50.774;12.918;2023-06-04T16:25:31;37.30;99.90
7014;DHT22;3547;50.774;12.918;2023-06-04T16:27:57;37.80;99.90
7014;DHT22;3547;50.774;12.918;2023-06-04T16:30:23;38.30;99.90
7014;DHT22;3547;50.774;12.918;2023-06-04T16:32:49;38.60;99.90
7014;DHT22;3547;50.774;12.918;2023-06-04T16:35:16;39.20;99.90
7014;DHT22;3547;50.774;12.918;2023-06-04T16:37:42;39.40;99.90
7014;DHT22;3547;50.774;12.918;2023-06-04T16:40:09;39.40;99.90
7014;DHT22;3547;50.774;12.918;2023-06-04T16:42:36;39.50;99.90
7014;DHT22;3547;50.774;12.918;2023-06-04T16:45:03;39.30;99.90
7014;DHT22;3547;50.774;12.918;2023-06-04T16:47:29;39.20;99.90
7014;DHT22;3547;50.774;12.918;2023-06-04T16:49:55;39.00;99.90
7014;DHT22;3547;50.774;12.918;2023-06-04T16:52:21;39.00;99.90
7014;DHT22;3547;50.774;12.918;2023-06-04T16:54:48;39.00;99.90
7014;DHT22;3547;50.774;12.918;2023-06-04T16:57:14;39.50;99.90
7014;DHT22;3547;50.774;12.918;2023-06-04T16:59:45;39.10;99.90
7014;DHT22;3547;50.774;12.918;2023-06-04T17:02:12;39.60;99.90
7014;DHT22;3547;50.774;12.918;2023-06-04T17:04:41;39.70;99.90
7014;DHT22;3547;50.774;12.918;2023-06-04T17:07:08;40.20;99.90